createdAt,value
2024-05-09T00:00:42.635Z,90.6822
2024-05-09T00:01:43.811Z,90.6700
2024-05-09T00:02:44.679Z,90.7195
2024-05-09T00:03:46.072Z,90.3008
2024-05-09T00:04:47.088Z,90.0810
2024-05-09T00:05:47.792Z,90.2135
2024-05-09T00:06:48.457Z,90.3087
2024-05-09T00:07:49.009Z,90.1411
2024-05-09T00:08:49.670Z,90.3578
2024-05-09T00:09:51.355Z,90.4387
2024-05-09T00:10:52.078Z,90.6203
2024-05-09T00:11:52.775Z,90.6508
2024-05-09T00:12:53.258Z,90.5541
2024-05-09T00:13:53.969Z,90.5992
2024-05-09T00:14:54.490Z,90.5684
2024-05-09T00:15:56.359Z,90.5498
2024-05-09T00:16:57.170Z,90.5864
2024-05-09T00:17:57.997Z,90.9117
2024-05-09T00:18:58.936Z,90.8794
2024-05-09T00:19:59.703Z,90.6856
2024-05-09T00:21:00.594Z,90.6932
2024-05-09T00:22:01.483Z,90.6523
2024-05-09T00:23:02.221Z,90.7030
2024-05-09T00:24:03.478Z,90.7485
2024-05-09T00:25:04.194Z,90.8360
2024-05-09T00:26:04.877Z,90.8821
2024-05-09T00:27:05.775Z,90.8238
2024-05-09T00:28:09.055Z,90.8629
2024-05-09T00:29:10.055Z,90.9154
2024-05-09T00:30:14.509Z,90.8864
2024-05-09T00:31:18.346Z,90.8522
2024-05-09T00:32:19.480Z,90.9859
2024-05-09T00:33:20.855Z,91.0771
2024-05-09T00:34:22.148Z,90.9795
2024-05-09T00:35:23.623Z,91.0884
2024-05-09T00:36:24.765Z,91.1434
2024-05-09T00:37:25.841Z,91.2114
2024-05-09T00:38:26.989Z,91.1852
2024-05-09T00:39:28.163Z,91.2023
2024-05-09T00:40:35.766Z,91.2136
2024-05-09T00:41:36.639Z,91.2548
2024-05-09T00:42:38.805Z,91.2071
2024-05-09T00:43:40.062Z,91.2609
2024-05-09T00:44:41.318Z,91.2956
2024-05-09T00:45:42.607Z,91.3414
2024-05-09T00:46:43.905Z,91.3158
2024-05-09T00:47:45.201Z,91.2609
2024-05-09T00:48:46.552Z,91.2337
2024-05-09T00:49:47.664Z,91.2880
2024-05-09T00:50:48.854Z,91.2883
2024-05-09T00:51:49.824Z,91.2914
2024-05-09T00:52:50.892Z,91.2511
2024-05-09T00:53:51.856Z,91.2303
2024-05-09T00:54:52.736Z,91.2432
2024-05-09T00:55:53.581Z,91.2563
2024-05-09T00:56:54.258Z,91.1351
2024-05-09T00:57:55.082Z,91.0201
2024-05-09T00:58:55.841Z,91.0039
2024-05-09T00:59:56.906Z,91.0692
2024-05-09T01:00:57.508Z,91.0127
2024-05-09T01:01:58.295Z,90.9334
2024-05-09T01:02:59.132Z,90.9587
2024-05-09T01:03:59.834Z,90.8669
2024-05-09T01:05:00.562Z,90.8946
2024-05-09T01:06:01.178Z,90.9120
2024-05-09T01:07:01.811Z,90.9520
2024-05-09T01:08:02.453Z,90.9102
2024-05-09T01:09:03.026Z,90.8791
2024-05-09T01:10:05.578Z,90.7991
2024-05-09T01:11:07.881Z,90.6062
2024-05-09T01:12:08.606Z,90.6532
2024-05-09T01:13:09.158Z,90.5629
2024-05-09T01:14:09.616Z,90.5480
2024-05-09T01:15:10.028Z,90.5122
2024-05-09T01:16:10.431Z,90.3987
2024-05-09T01:17:10.867Z,90.4363
2024-05-09T01:18:12.408Z,90.4903
2024-05-09T01:19:14.390Z,90.5171
2024-05-09T01:20:20.216Z,90.4533
2024-05-09T01:21:21.526Z,90.4759
2024-05-09T01:22:21.816Z,90.3511
2024-05-09T01:23:22.131Z,90.3673
2024-05-09T01:24:22.517Z,90.2632
2024-05-09T01:25:22.818Z,90.1387
2024-05-09T01:26:23.053Z,90.2382
2024-05-09T01:27:23.596Z,90.3029
2024-05-09T01:28:23.847Z,90.2754
2024-05-09T01:29:24.233Z,90.3343
2024-05-09T01:30:31.836Z,90.3539
2024-05-09T01:31:31.165Z,90.2657
2024-05-09T01:32:31.627Z,90.3276
2024-05-09T01:33:33.273Z,90.2205
2024-05-09T01:34:33.960Z,90.2080
2024-05-09T01:35:34.286Z,90.2553
2024-05-09T01:36:34.682Z,90.1942
2024-05-09T01:37:34.833Z,90.3294
2024-05-09T01:38:35.263Z,90.3893
2024-05-09T01:39:35.730Z,90.3111
2024-05-09T01:40:38.930Z,90.1643
2024-05-09T01:41:40.860Z,90.0780
2024-05-09T01:42:41.076Z,90.0572
2024-05-09T01:43:41.887Z,89.9629
2024-05-09T01:44:42.136Z,90.0893
2024-05-09T01:45:42.415Z,90.0960
2024-05-09T01:46:42.698Z,90.0383
2024-05-09T01:47:43.159Z,90.1344
2024-05-09T01:48:44.558Z,90.0786
2024-05-09T01:49:44.989Z,90.1341
2024-05-09T01:50:45.494Z,90.0526
2024-05-09T01:51:46.023Z,89.9535
2024-05-09T01:52:46.277Z,90.1030
2024-05-09T01:53:46.505Z,90.0310
2024-05-09T01:54:46.697Z,89.9989
2024-05-09T01:55:46.979Z,89.9501
2024-05-09T01:56:47.337Z,90.1094
2024-05-09T01:57:47.599Z,90.0597
2024-05-09T01:58:47.781Z,90.0914
2024-05-09T01:59:48.008Z,90.2126
2024-05-09T02:00:48.319Z,90.2077
2024-05-09T02:01:56.632Z,90.1735
2024-05-09T02:02:54.946Z,89.9251
2024-05-09T02:03:55.412Z,89.9107
2024-05-09T02:04:56.158Z,89.9580
2024-05-09T02:05:56.517Z,90.0423
2024-05-09T02:06:57.132Z,90.1512
2024-05-09T02:07:57.392Z,90.2193
2024-05-09T02:08:57.546Z,90.0713
2024-05-09T02:09:58.110Z,90.1122
2024-05-09T02:10:58.532Z,90.0368
2024-05-09T02:11:59.086Z,90.0795
2024-05-09T02:12:59.334Z,90.1375
2024-05-09T02:13:59.700Z,90.0764
2024-05-09T02:14:59.934Z,90.1418
2024-05-09T02:16:00.217Z,89.9480
2024-05-09T02:17:00.556Z,90.1079
2024-05-09T02:18:01.121Z,90.0468
2024-05-09T02:19:01.739Z,90.0444
2024-05-09T02:20:02.115Z,90.0264
2024-05-09T02:21:02.720Z,90.1381
2024-05-09T02:22:02.950Z,89.9507
2024-05-09T02:23:03.305Z,89.9162
2024-05-09T02:24:03.627Z,89.9294
2024-05-09T02:25:03.841Z,89.8692
2024-05-09T02:26:04.497Z,89.8979
2024-05-09T02:27:04.741Z,89.9873
2024-05-09T02:28:05.080Z,89.7475
2024-05-09T02:29:05.393Z,89.8485
2024-05-09T02:30:15.150Z,89.8012
2024-05-09T02:31:13.510Z,89.9767
2024-05-09T02:32:14.104Z,90.1064
2024-05-09T02:33:15.002Z,89.9803
2024-05-09T02:34:16.310Z,89.9846
2024-05-09T02:35:16.604Z,90.1189
2024-05-09T02:36:16.771Z,90.1042
2024-05-09T02:37:16.937Z,90.0294
2024-05-09T02:38:18.221Z,90.0850
2024-05-09T02:39:18.438Z,89.9794
2024-05-09T02:40:25.665Z,89.9565
2024-05-09T02:41:25.977Z,90.0044
2024-05-09T02:42:27.204Z,90.0655
2024-05-09T02:43:27.464Z,89.9776
2024-05-09T02:44:27.763Z,90.0978
2024-05-09T02:45:28.065Z,90.1277
2024-05-09T02:46:28.287Z,90.1817
2024-05-09T02:47:28.808Z,89.9980
2024-05-09T02:48:29.149Z,90.1207
2024-05-09T02:49:29.573Z,90.1643
2024-05-09T02:50:37.036Z,90.1961
2024-05-09T02:51:36.306Z,90.2910
2024-05-09T02:52:36.596Z,90.3276
2024-05-09T02:53:36.903Z,90.2788
2024-05-09T02:54:37.241Z,90.2605
2024-05-09T02:55:37.533Z,90.2458
2024-05-09T02:56:37.991Z,90.2483
2024-05-09T02:57:38.413Z,90.3737
2024-05-09T02:58:38.795Z,90.3029
2024-05-09T02:59:39.078Z,90.2925
2024-05-09T03:00:41.666Z,90.3923
2024-05-09T03:01:45.743Z,90.3706
2024-05-09T03:02:46.164Z,90.2879
2024-05-09T03:03:46.559Z,90.3868
2024-05-09T03:04:47.024Z,90.3508
2024-05-09T03:05:47.495Z,90.2943
2024-05-09T03:06:47.945Z,90.2977
2024-05-09T03:07:48.124Z,90.4643
2024-05-09T03:08:48.420Z,90.4512
2024-05-09T03:09:48.606Z,90.4430
2024-05-09T03:10:49.097Z,90.5464
2024-05-09T03:11:49.510Z,90.4143
2024-05-09T03:12:49.814Z,90.4942
2024-05-09T03:13:50.024Z,90.5843
2024-05-09T03:14:50.297Z,90.4927
2024-05-09T03:15:50.722Z,90.5260
2024-05-09T03:16:51.066Z,90.4802
2024-05-09T03:17:51.696Z,90.5666
2024-05-09T03:18:52.075Z,90.4582
2024-05-09T03:19:52.413Z,90.4408
2024-05-09T03:20:52.766Z,90.3908
2024-05-09T03:21:52.943Z,90.3514
2024-05-09T03:22:56.323Z,90.4845
2024-05-09T03:23:57.513Z,90.4314
2024-05-09T03:24:57.731Z,90.4131
2024-05-09T03:25:58.057Z,90.3673
2024-05-09T03:26:58.441Z,90.2782
2024-05-09T03:27:58.686Z,90.3120
2024-05-09T03:28:58.969Z,90.2425
2024-05-09T03:29:59.157Z,90.2150
2024-05-09T03:30:59.321Z,90.2940
2024-05-09T03:31:59.732Z,90.3117
2024-05-09T03:33:00.341Z,90.3163
2024-05-09T03:34:00.827Z,90.2937
2024-05-09T03:35:01.087Z,90.0850
2024-05-09T03:36:01.249Z,90.1338
2024-05-09T03:37:01.531Z,90.0856
2024-05-09T03:38:01.777Z,90.1707
2024-05-09T03:39:02.097Z,90.1753
2024-05-09T03:40:02.875Z,90.1936
2024-05-09T03:41:03.271Z,90.0966
2024-05-09T03:42:03.612Z,90.0603
2024-05-09T03:43:03.830Z,90.1939
2024-05-09T03:44:04.083Z,90.1726
2024-05-09T03:45:04.328Z,90.2608
2024-05-09T03:46:04.515Z,90.3242
2024-05-09T03:47:04.785Z,90.2565
2024-05-09T03:48:05.522Z,90.1405
2024-05-09T03:49:05.893Z,90.1384
2024-05-09T03:50:11.962Z,90.0780
2024-05-09T03:51:12.509Z,90.1210
2024-05-09T03:52:12.809Z,90.1421
2024-05-09T03:53:13.184Z,90.1640
2024-05-09T03:54:13.528Z,90.1909
2024-05-09T03:55:13.725Z,90.2580
2024-05-09T03:56:14.020Z,90.2895
2024-05-09T03:57:14.213Z,90.2599
2024-05-09T03:58:14.564Z,90.1945
2024-05-09T03:59:14.896Z,90.1891
2024-05-09T04:00:21.950Z,90.2162
2024-05-09T04:01:21.414Z,90.2611
2024-05-09T04:02:21.811Z,90.3276
2024-05-09T04:03:22.565Z,90.2550
2024-05-09T04:04:22.959Z,90.2495
2024-05-09T04:05:23.192Z,90.2208
2024-05-09T04:06:23.418Z,90.2513
2024-05-09T04:07:23.631Z,90.0874
2024-05-09T04:08:23.901Z,90.1701
2024-05-09T04:09:24.166Z,90.2159
2024-05-09T04:10:31.181Z,90.1128
2024-05-09T04:11:30.467Z,90.0954
2024-05-09T04:12:30.844Z,89.9535
2024-05-09T04:13:31.020Z,90.0337
2024-05-09T04:14:31.319Z,89.9931
2024-05-09T04:15:31.866Z,90.0206
2024-05-09T04:16:32.344Z,90.1393
2024-05-09T04:17:33.006Z,90.2327
2024-05-09T04:18:33.451Z,89.9138
2024-05-09T04:19:33.722Z,89.8601
2024-05-09T04:20:39.007Z,89.8766
2024-05-09T04:21:40.760Z,89.9779
2024-05-09T04:22:52.957Z,90.0173
2024-05-09T04:23:53.162Z,89.9574
2024-05-09T04:24:53.295Z,89.8247
2024-05-09T04:26:05.285Z,89.8253
2024-05-09T04:27:05.389Z,89.9007
2024-05-09T04:28:17.367Z,89.7157
2024-05-09T04:29:17.494Z,89.7215
2024-05-09T04:30:26.221Z,89.7374
2024-05-09T04:31:24.540Z,89.7935
2024-05-09T04:32:25.467Z,89.7707
2024-05-09T04:33:25.802Z,89.6873
2024-05-09T04:34:26.121Z,89.7084
2024-05-09T04:35:26.372Z,89.8000
2024-05-09T04:36:26.568Z,89.7328
2024-05-09T04:37:26.670Z,89.5463
2024-05-09T04:38:26.672Z,89.4524
2024-05-09T04:39:26.817Z,89.4823
2024-05-09T04:40:33.396Z,89.6611
2024-05-09T04:41:34.028Z,89.6886
2024-05-09T04:42:34.175Z,89.7292
2024-05-09T04:43:34.337Z,89.8219
2024-05-09T04:44:34.607Z,89.7044
2024-05-09T04:45:35.072Z,89.6510
2024-05-09T04:46:35.479Z,89.5598
2024-05-09T04:47:35.861Z,89.6632
2024-05-09T04:48:36.221Z,89.6309
2024-05-09T04:49:37.504Z,89.4459
2024-05-09T04:50:39.307Z,89.5259
2024-05-09T04:51:40.356Z,89.6101
2024-05-09T04:52:40.510Z,89.3794
2024-05-09T04:53:40.936Z,89.4755
2024-05-09T04:54:41.258Z,89.4923
2024-05-09T04:55:41.438Z,89.5146
2024-05-09T04:56:41.562Z,89.5741
2024-05-09T04:57:41.754Z,89.5344
2024-05-09T04:58:42.128Z,89.4972
2024-05-09T04:59:42.284Z,89.5866
2024-05-09T05:00:42.613Z,89.6706
2024-05-09T05:01:42.779Z,89.7429
2024-05-09T05:02:43.229Z,89.6632
2024-05-09T05:03:43.596Z,89.5811
2024-05-09T05:04:43.985Z,89.6068
2024-05-09T05:05:45.441Z,89.5375
2024-05-09T05:06:46.348Z,89.5583
2024-05-09T05:07:46.504Z,89.4380
2024-05-09T05:08:46.718Z,89.5479
2024-05-09T05:09:46.847Z,89.5018
2024-05-09T05:10:47.710Z,89.6895
2024-05-09T05:11:48.619Z,89.6211
2024-05-09T05:12:48.763Z,89.6703
2024-05-09T05:13:48.852Z,89.7075
2024-05-09T05:14:49.511Z,89.5723
2024-05-09T05:15:50.536Z,89.5631
2024-05-09T05:16:50.568Z,89.5476
2024-05-09T05:18:02.753Z,89.5463
2024-05-09T05:19:02.946Z,89.6278
2024-05-09T05:20:04.707Z,89.5445
2024-05-09T05:21:05.032Z,89.5335
2024-05-09T05:22:05.129Z,89.6037
2024-05-09T05:23:05.205Z,89.5683
2024-05-09T05:24:05.285Z,89.6773
2024-05-09T05:25:05.361Z,89.6303
2024-05-09T05:26:17.309Z,89.5328
2024-05-09T05:27:17.330Z,89.5976
2024-05-09T05:28:29.270Z,89.5229
2024-05-09T05:29:29.398Z,89.5854
2024-05-09T05:30:34.443Z,89.4713
2024-05-09T05:31:36.467Z,89.5723
2024-05-09T05:32:36.583Z,89.6361
2024-05-09T05:33:36.944Z,89.4908
2024-05-09T05:34:37.044Z,89.4453
2024-05-09T05:35:37.196Z,89.5631
2024-05-09T05:36:37.299Z,89.6016
2024-05-09T05:37:37.374Z,89.6907
2024-05-09T05:38:37.523Z,89.7087
2024-05-09T05:39:37.532Z,89.7331
2024-05-09T05:40:38.764Z,89.7438
2024-05-09T05:41:40.077Z,89.4939
2024-05-09T05:42:40.131Z,89.6031
2024-05-09T05:43:40.315Z,89.4405
2024-05-09T05:44:40.452Z,89.3608
2024-05-09T05:45:40.562Z,89.4295
2024-05-09T05:46:41.659Z,89.4533
2024-05-09T05:47:42.139Z,89.3339
2024-05-09T05:48:42.495Z,89.3346
2024-05-09T05:49:42.683Z,89.3068
2024-05-09T05:50:42.855Z,89.3175
2024-05-09T05:51:43.176Z,89.3739
2024-05-09T05:52:43.440Z,89.4160
2024-05-09T05:53:43.555Z,89.3846
2024-05-09T05:54:43.705Z,89.4749
2024-05-09T05:55:43.890Z,89.4456
2024-05-09T05:56:44.141Z,89.5702
2024-05-09T05:57:44.367Z,89.4334
2024-05-09T05:58:44.575Z,89.4353
2024-05-09T05:59:44.800Z,89.3343
2024-05-09T06:00:45.044Z,89.3324
2024-05-09T06:01:45.472Z,89.2985
2024-05-09T06:02:45.868Z,89.4624
2024-05-09T06:03:47.335Z,89.5650
2024-05-09T06:04:47.646Z,89.5235
2024-05-09T06:05:47.866Z,89.4746
2024-05-09T06:06:48.115Z,89.4130
2024-05-09T06:07:49.287Z,89.4340
2024-05-09T06:08:49.388Z,89.5164
2024-05-09T06:09:50.652Z,89.4615
2024-05-09T06:10:50.805Z,89.5201
2024-05-09T06:11:52.151Z,89.4704
2024-05-09T06:12:52.130Z,89.2519
2024-05-09T06:13:52.236Z,89.1408
2024-05-09T06:14:52.407Z,89.1521
2024-05-09T06:15:52.454Z,89.3355
2024-05-09T06:16:54.102Z,89.3608
2024-05-09T06:17:55.752Z,89.2515
2024-05-09T06:18:56.567Z,89.4075
2024-05-09T06:19:56.615Z,89.3779
2024-05-09T06:20:56.851Z,89.0559
2024-05-09T06:21:56.919Z,88.9940
2024-05-09T06:22:56.926Z,88.8231
2024-05-09T06:23:56.984Z,88.7007
2024-05-09T06:25:08.814Z,88.6501
2024-05-09T06:26:20.716Z,88.4802
2024-05-09T06:27:32.577Z,88.4939
2024-05-09T06:28:32.560Z,88.4089
2024-05-09T06:29:44.384Z,88.3075
2024-05-09T06:30:44.341Z,88.1541
2024-05-09T06:31:59.495Z,88.1338
2024-05-09T06:33:00.366Z,87.8254
2024-05-09T06:34:12.536Z,87.6850
2024-05-09T06:35:12.602Z,87.6332
2024-05-09T06:36:13.521Z,88.0241
2024-05-09T06:37:25.362Z,87.5273
2024-05-09T06:38:37.268Z,87.6056
2024-05-09T06:39:37.183Z,87.3344
2024-05-09T06:40:49.034Z,86.6794
2024-05-09T06:42:00.823Z,87.2780
2024-05-09T06:43:12.682Z,87.1949
2024-05-09T06:44:12.695Z,86.9508
2024-05-09T06:45:12.716Z,87.1385
2024-05-09T06:46:24.525Z,86.9894
2024-05-09T06:47:36.534Z,86.9512
2024-05-09T06:48:36.767Z,86.9114
2024-05-09T06:49:36.815Z,86.8116
2024-05-09T06:50:38.347Z,86.8806
2024-05-09T06:51:39.594Z,86.5754
2024-05-09T06:52:41.517Z,86.3990
2024-05-09T06:53:41.486Z,86.3728
2024-05-09T06:54:41.577Z,86.2144
2024-05-09T06:55:41.428Z,86.2333
2024-05-09T06:56:53.211Z,86.1461
2024-05-09T06:58:04.938Z,86.4673
2024-05-09T06:59:16.743Z,86.4797
2024-05-09T07:00:35.599Z,86.4391
2024-05-09T07:01:35.287Z,85.5656
2024-05-09T07:02:47.066Z,86.1840
2024-05-09T07:03:47.135Z,86.8595
2024-05-09T07:04:47.241Z,86.7182
2024-05-09T07:05:48.569Z,86.3621
2024-05-09T07:06:50.937Z,85.9001
2024-05-09T07:07:50.923Z,85.5711
2024-05-09T07:08:52.448Z,85.3678
2024-05-09T07:09:52.626Z,85.6791
2024-05-09T07:10:52.784Z,85.9309
2024-05-09T07:11:52.984Z,86.0755
2024-05-09T07:12:53.234Z,85.7185
2024-05-09T07:13:53.207Z,85.6306
2024-05-09T07:14:53.583Z,85.6776
2024-05-09T07:15:53.516Z,85.6452
2024-05-09T07:17:05.404Z,85.7649
2024-05-09T07:18:05.497Z,85.4939
2024-05-09T07:19:05.686Z,85.6046
2024-05-09T07:20:08.963Z,85.9022
2024-05-09T07:21:09.366Z,85.7887
2024-05-09T07:22:21.156Z,85.8305
2024-05-09T07:23:32.905Z,86.0688
2024-05-09T07:24:44.778Z,85.5589
2024-05-09T07:25:56.587Z,85.7705
2024-05-09T07:27:08.266Z,85.8078
2024-05-09T07:28:19.960Z,85.9589
2024-05-09T07:29:32.989Z,85.4126
2024-05-09T07:30:35.171Z,85.0941
2024-05-09T07:31:35.215Z,85.1105
2024-05-09T07:32:47.096Z,85.0441
2024-05-09T07:33:47.148Z,85.1991
2024-05-09T07:34:47.192Z,85.2531
2024-05-09T07:35:58.933Z,84.9513
2024-05-09T07:37:10.643Z,84.6436
2024-05-09T07:38:22.512Z,84.5701
2024-05-09T07:39:22.670Z,84.8655
2024-05-09T07:40:36.644Z,85.1565
2024-05-09T07:41:37.486Z,85.0462
2024-05-09T07:42:37.541Z,85.2045
2024-05-09T07:43:50.276Z,85.7064
2024-05-09T07:44:51.277Z,85.5076
2024-05-09T07:46:48.234Z,85.2260
2024-05-09T07:48:14.696Z,84.8582
2024-05-09T07:49:45.087Z,85.0538
2024-05-09T07:53:08.679Z,84.3174
2024-05-09T07:53:33.658Z,84.1093
2024-05-09T07:53:47.320Z,84.4334
2024-05-09T07:54:49.818Z,84.9043
2024-05-09T07:55:51.072Z,84.8261
2024-05-09T07:56:51.221Z,84.1624
2024-05-09T07:57:51.609Z,84.2567
2024-05-09T07:58:52.172Z,84.6421
2024-05-09T07:59:52.294Z,84.5310
2024-05-09T08:00:52.379Z,84.8615
2024-05-09T08:01:52.464Z,84.0665
2024-05-09T08:02:52.730Z,83.4626
2024-05-09T08:03:53.090Z,83.6481
2024-05-09T08:04:53.295Z,83.2868
2024-05-09T08:05:54.453Z,83.1028
2024-05-09T08:06:54.568Z,82.6285
2024-05-09T08:07:55.583Z,83.0005
2024-05-09T08:09:11.116Z,82.5233
2024-05-09T08:10:15.471Z,83.2779
2024-05-09T08:11:18.933Z,83.0799
2024-05-09T08:12:30.847Z,82.8333
2024-05-09T08:13:42.585Z,82.1543
2024-05-09T08:14:56.198Z,82.6574
2024-05-09T08:16:07.972Z,82.4687
2024-05-09T08:17:19.800Z,82.3425
2024-05-09T08:18:31.883Z,81.8290
2024-05-09T08:19:32.006Z,82.5632
2024-05-09T08:20:43.727Z,82.7583
2024-05-09T08:21:55.540Z,82.4966
2024-05-09T08:23:07.336Z,82.8237
2024-05-09T08:24:19.128Z,83.3453
2024-05-09T08:25:30.916Z,83.4437
2024-05-09T08:26:42.682Z,83.2237
2024-05-09T08:27:54.452Z,83.2062
2024-05-09T08:28:54.505Z,83.3487
2024-05-09T08:31:17.970Z,82.7537
2024-05-09T08:32:29.938Z,83.4826
2024-05-09T08:33:31.236Z,84.0558
2024-05-09T08:34:31.216Z,83.8120
2024-05-09T08:35:31.293Z,83.3283
2024-05-09T08:36:43.163Z,83.2059
2024-05-09T08:37:43.278Z,83.1785
2024-05-09T08:38:43.386Z,83.4977
2024-05-09T08:39:43.369Z,83.7357
2024-05-09T08:40:43.433Z,83.4076
2024-05-09T08:41:44.359Z,83.7345
2024-05-09T08:42:56.166Z,83.1876
2024-05-09T08:44:07.884Z,83.0058
2024-05-09T08:45:19.617Z,83.2448
2024-05-09T08:46:31.361Z,83.3679
2024-05-09T08:47:31.787Z,82.8382
2024-05-09T08:48:33.095Z,82.2046
2024-05-09T08:49:33.263Z,82.0740
2024-05-09T08:50:38.535Z,81.5702
2024-05-09T08:51:41.058Z,81.9696
2024-05-09T08:52:41.093Z,81.5030
2024-05-09T08:53:41.052Z,81.9272
2024-05-09T08:54:52.846Z,81.7700
2024-05-09T08:56:04.670Z,81.6724
2024-05-09T08:57:16.523Z,81.5813
2024-05-09T08:58:16.797Z,81.2015
2024-05-09T08:59:16.831Z,81.3483
2024-05-09T09:00:35.948Z,81.7362
2024-05-09T09:01:34.398Z,82.1564
2024-05-09T09:02:34.694Z,81.8595
2024-05-09T09:03:34.815Z,80.6244
2024-05-09T09:04:34.955Z,80.3964
2024-05-09T09:05:46.750Z,80.6511
2024-05-09T09:06:59.767Z,81.5640
2024-05-09T09:08:00.294Z,81.4774
2024-05-09T09:09:12.302Z,81.5529
2024-05-09T09:10:29.884Z,82.1274
2024-05-09T09:11:31.614Z,81.5180
2024-05-09T09:12:31.620Z,82.1781
2024-05-09T09:13:43.437Z,82.1459
2024-05-09T09:14:55.183Z,81.8240
2024-05-09T09:16:07.045Z,81.1187
2024-05-09T09:17:07.003Z,81.2110
2024-05-09T09:18:19.272Z,80.9817
2024-05-09T09:19:19.432Z,81.1084
2024-05-09T09:20:26.269Z,81.1984
2024-05-09T09:21:25.286Z,81.1090
2024-05-09T09:22:38.094Z,80.6353
2024-05-09T09:23:38.037Z,80.2380
2024-05-09T09:24:49.895Z,81.3326
2024-05-09T09:26:01.751Z,80.6544
2024-05-09T09:27:13.606Z,80.1490
2024-05-09T09:28:25.427Z,80.6722
2024-05-09T09:29:37.211Z,80.2612
2024-05-09T09:30:48.973Z,80.4995
2024-05-09T09:32:00.701Z,79.7999
2024-05-09T09:33:12.550Z,80.0826
2024-05-09T09:34:24.642Z,79.7480
2024-05-09T09:35:24.556Z,79.6097
2024-05-09T09:36:36.292Z,79.5883
2024-05-09T09:37:47.984Z,79.4494
2024-05-09T09:38:59.758Z,79.5682
2024-05-09T09:40:13.311Z,79.6406
2024-05-09T09:41:13.609Z,79.7598
2024-05-09T09:42:25.299Z,79.9102
2024-05-09T09:43:37.110Z,79.9580
2024-05-09T09:44:57.794Z,80.0361
2024-05-09T09:45:54.712Z,80.4544
2024-05-09T09:47:07.120Z,80.0984
2024-05-09T09:48:07.036Z,79.2316
2024-05-09T09:49:19.826Z,79.6076
2024-05-09T09:50:34.572Z,80.0882
2024-05-09T09:51:35.447Z,79.5563
2024-05-09T09:52:35.395Z,79.3091
2024-05-09T09:53:47.208Z,78.5494
2024-05-09T09:54:58.994Z,78.7109
2024-05-09T09:55:58.975Z,78.2501
2024-05-09T09:57:10.636Z,78.7305
2024-05-09T09:58:22.395Z,77.2407
2024-05-09T09:59:34.177Z,76.7905
2024-05-09T10:00:46.328Z,77.1069
2024-05-09T10:01:46.338Z,77.0843
2024-05-09T10:02:58.084Z,77.3714
2024-05-09T10:04:09.812Z,76.7778
2024-05-09T10:05:21.754Z,76.0482
2024-05-09T10:06:21.670Z,75.1623
2024-05-09T10:07:22.508Z,75.3628
2024-05-09T10:08:34.164Z,74.4373
2024-05-09T10:09:45.895Z,74.8076
2024-05-09T10:10:58.668Z,74.5830
2024-05-09T10:12:10.402Z,73.5378
2024-05-09T10:13:22.054Z,73.9467
2024-05-09T10:14:33.702Z,74.0607
2024-05-09T10:15:34.580Z,74.4482
2024-05-09T10:16:46.198Z,74.4610
2024-05-09T10:17:57.908Z,73.9483
2024-05-09T10:19:09.671Z,74.9467
2024-05-09T10:20:27.715Z,74.9210
2024-05-09T10:21:27.923Z,73.0153
2024-05-09T10:22:39.529Z,73.5816
2024-05-09T10:23:51.209Z,73.9826
2024-05-09T10:25:04.821Z,73.2809
2024-05-09T10:26:05.922Z,72.9247
2024-05-09T10:27:06.127Z,72.9976
2024-05-09T10:28:17.788Z,72.8112
2024-05-09T10:29:18.797Z,72.7037
2024-05-09T10:30:35.801Z,72.5673
2024-05-09T10:31:36.246Z,72.5417
2024-05-09T10:32:47.959Z,72.1459
2024-05-09T10:33:59.995Z,72.9056
2024-05-09T10:35:00.082Z,72.0140
2024-05-09T10:36:00.009Z,72.2890
2024-05-09T10:37:11.623Z,72.1655
2024-05-09T10:38:23.202Z,73.3445
2024-05-09T10:39:34.940Z,72.8628
2024-05-09T10:40:46.526Z,71.8105
2024-05-09T10:41:58.189Z,72.3835
2024-05-09T10:43:09.838Z,73.5124
2024-05-09T10:44:21.359Z,73.2520
2024-05-09T10:45:32.957Z,73.0750
2024-05-09T10:46:44.553Z,72.5226
2024-05-09T10:47:56.377Z,73.8267
2024-05-09T10:49:08.186Z,74.2733
2024-05-09T10:50:25.552Z,74.3468
2024-05-09T10:51:25.773Z,75.1812
2024-05-09T10:52:37.352Z,74.7690
2024-05-09T10:53:48.954Z,74.9226
2024-05-09T10:55:01.694Z,74.5772
2024-05-09T10:56:04.041Z,74.0148
2024-05-09T10:57:15.591Z,73.8516
2024-05-09T10:58:27.238Z,73.5386
2024-05-09T10:59:38.950Z,73.4582
2024-05-09T11:00:50.582Z,73.0365
2024-05-09T11:02:02.415Z,73.1258
2024-05-09T11:03:14.043Z,72.3278
2024-05-09T11:04:25.714Z,71.9071
2024-05-09T11:05:37.563Z,72.5416
2024-05-09T11:06:37.498Z,72.0577
2024-05-09T11:07:37.447Z,71.7858
2024-05-09T11:08:49.055Z,71.7319
2024-05-09T11:10:00.801Z,72.0821
2024-05-09T11:11:12.463Z,69.6595
2024-05-09T11:12:24.987Z,70.0758
2024-05-09T11:13:24.984Z,70.6493
2024-05-09T11:14:36.570Z,69.5148
2024-05-09T11:15:48.213Z,70.3655
2024-05-09T11:16:59.970Z,70.1615
2024-05-09T11:18:11.792Z,69.7014
2024-05-09T11:19:11.787Z,70.3523
2024-05-09T11:20:29.444Z,69.7141
2024-05-09T11:21:29.312Z,69.5164
2024-05-09T11:22:41.627Z,69.6155
2024-05-09T11:23:41.834Z,67.6097
2024-05-09T11:24:41.703Z,67.8495
2024-05-09T11:25:53.390Z,67.4080
2024-05-09T11:27:05.031Z,67.0265
2024-05-09T11:28:16.833Z,67.2112
2024-05-09T11:29:19.236Z,67.0866
2024-05-09T11:30:26.559Z,67.8639
2024-05-09T11:31:25.450Z,67.9753
2024-05-09T11:32:25.528Z,68.3952
2024-05-09T11:33:25.492Z,70.0740
2024-05-09T11:34:37.095Z,69.1714
2024-05-09T11:35:48.713Z,69.1768
2024-05-09T11:37:00.433Z,69.1864
2024-05-09T11:38:12.088Z,69.8739
2024-05-09T11:39:23.907Z,70.5557
2024-05-09T11:40:25.998Z,70.0737
2024-05-09T11:41:29.323Z,69.3425
2024-05-09T11:42:40.873Z,69.1641
2024-05-09T11:43:52.617Z,69.1870
2024-05-09T11:45:04.147Z,69.8418
2024-05-09T11:46:15.903Z,68.1028
2024-05-09T11:47:27.588Z,68.3909
2024-05-09T11:48:39.380Z,69.0623
2024-05-09T11:49:39.416Z,69.0227
2024-05-09T11:50:51.064Z,69.3202
2024-05-09T11:52:02.710Z,69.6874
2024-05-09T11:53:14.265Z,69.3322
2024-05-09T11:54:25.821Z,69.3077
2024-05-09T11:55:37.334Z,70.3883
2024-05-09T11:56:48.986Z,70.5834
2024-05-09T11:58:00.611Z,70.4046
2024-05-09T11:59:12.271Z,71.0002
2024-05-09T12:00:33.564Z,71.1991
2024-05-09T12:01:29.938Z,70.3978
2024-05-09T12:02:29.909Z,70.9355
2024-05-09T12:03:41.682Z,70.8937
2024-05-09T12:04:53.424Z,71.4122
2024-05-09T12:05:53.325Z,71.6890
2024-05-09T12:07:05.043Z,70.6859
2024-05-09T12:08:16.684Z,70.3019
2024-05-09T12:09:28.395Z,70.3225
2024-05-09T12:10:40.127Z,69.7810
2024-05-09T12:11:51.919Z,69.7233
2024-05-09T12:13:05.549Z,69.1725
2024-05-09T12:14:06.909Z,68.7871
2024-05-09T12:15:18.578Z,68.2376
2024-05-09T12:16:30.337Z,69.4682
2024-05-09T12:17:31.228Z,68.9506
2024-05-09T12:18:31.178Z,68.3787
2024-05-09T12:19:42.831Z,68.7526
2024-05-09T12:20:54.622Z,69.8632
2024-05-09T12:22:06.286Z,69.9181
2024-05-09T12:23:17.883Z,67.7513
2024-05-09T12:24:29.508Z,68.6013
2024-05-09T12:25:41.237Z,68.6216
2024-05-09T12:26:52.945Z,68.1778
2024-05-09T12:28:04.647Z,67.7714
2024-05-09T12:29:16.280Z,67.7440
2024-05-09T12:30:35.760Z,67.4111
2024-05-09T12:31:34.349Z,67.1608
2024-05-09T12:32:46.531Z,68.2447
2024-05-09T12:33:46.541Z,66.9300
2024-05-09T12:34:46.427Z,65.4170
2024-05-09T12:35:58.158Z,64.8676
2024-05-09T12:37:10.176Z,65.1326
2024-05-09T12:38:10.127Z,64.6711
2024-05-09T12:39:21.784Z,65.1476
2024-05-09T12:40:36.971Z,65.7219
2024-05-09T12:41:39.271Z,66.3987
2024-05-09T12:42:40.002Z,65.4954
2024-05-09T12:43:51.569Z,65.2384
2024-05-09T12:45:03.199Z,66.4045
2024-05-09T12:46:14.923Z,65.8442
2024-05-09T12:47:15.192Z,66.5388
2024-05-09T12:48:27.156Z,65.4322
2024-05-09T12:49:27.164Z,66.5971
2024-05-09T12:50:32.214Z,65.1948
2024-05-09T12:51:33.327Z,65.1969
2024-05-09T12:52:45.096Z,64.6448
2024-05-09T12:53:45.942Z,63.9686
2024-05-09T12:54:57.703Z,63.9076
2024-05-09T12:56:01.843Z,63.9570
2024-05-09T12:57:03.485Z,64.3873
2024-05-09T12:58:15.485Z,64.6502